Terminal Aerodrome Forecast
Issued by NWS Topeka, KS

Home | Current Version | Previous Version | Text Only | Print | Product List | Glossary On
Versions: 1 2 3 4 5 6 7 8 9 10 11 12 13 14 15 16
000
FTUS43 KTOP 231700
TAFTOP
TAF
KTOP 231724Z 2318/2418 02009KT P6SM FEW050 SCT250
     FM240100 08004KT P6SM SCT100
     FM241500 12009KT P6SM SCT250=

USA.gov is the U.S. government's official web portal to all federal, state and local government web resources and services.